createdAt,value
2019-05-20T00:00:40.591Z,7.78
2019-05-20T00:03:09.729Z,8.03
2019-05-20T00:05:38.881Z,8.50
2019-05-20T00:08:08.031Z,8.40
2019-05-20T00:10:36.900Z,7.25
2019-05-20T00:13:05.898Z,9.40
2019-05-20T00:15:34.905Z,8.35
2019-05-20T00:18:03.996Z,9.20
2019-05-20T00:20:33.296Z,8.35
2019-05-20T00:23:02.395Z,6.87
2019-05-20T00:25:31.601Z,9.15
2019-05-20T00:28:00.546Z,8.65
2019-05-20T00:30:29.337Z,8.73
2019-05-20T00:32:58.493Z,9.20
2019-05-20T00:35:27.364Z,9.85
2019-05-20T00:37:56.252Z,11.30
2019-05-20T00:40:25.117Z,8.10
2019-05-20T00:42:54.226Z,8.93
2019-05-20T00:45:23.338Z,8.75
2019-05-20T00:47:52.615Z,10.88
2019-05-20T00:50:21.729Z,10.40
2019-05-20T00:52:50.819Z,11.35
2019-05-20T00:55:25.737Z,10.00
2019-05-20T00:57:54.731Z,7.87
2019-05-20T01:00:24.269Z,10.82
2019-05-20T01:02:56.986Z,11.30
2019-05-20T01:05:24.402Z,9.50
2019-05-20T01:07:53.363Z,8.75
2019-05-20T01:10:22.647Z,9.28
2019-05-20T01:12:51.563Z,10.72
2019-05-20T01:15:20.764Z,8.33
2019-05-20T01:17:49.964Z,10.78
2019-05-20T01:20:19.165Z,11.48
2019-05-20T01:22:48.163Z,10.30
2019-05-20T01:25:17.140Z,12.33
2019-05-20T01:27:46.144Z,11.75
2019-05-20T01:30:15.834Z,12.15
2019-05-20T01:32:45.041Z,10.48
2019-05-20T01:35:15.164Z,9.73
2019-05-20T01:37:44.269Z,11.28
2019-05-20T01:40:13.608Z,12.43
2019-05-20T01:42:42.757Z,11.45
2019-05-20T01:45:13.088Z,13.28
2019-05-20T01:47:42.171Z,13.75
2019-05-20T01:50:11.268Z,11.40
2019-05-20T01:52:40.274Z,11.25
2019-05-20T01:55:10.074Z,9.05
2019-05-20T01:57:39.076Z,12.75
2019-05-20T02:00:08.952Z,12.07
2019-05-20T02:02:38.303Z,12.07
2019-05-20T02:05:07.803Z,12.07
2019-05-20T02:07:36.779Z,12.28
2019-05-20T02:10:07.478Z,11.18
2019-05-20T02:12:36.623Z,12.25
2019-05-20T02:15:10.991Z,12.73
2019-05-20T02:17:40.135Z,11.97
2019-05-20T02:20:09.326Z,13.32
2019-05-20T02:22:38.441Z,12.53
2019-05-20T02:25:07.432Z,11.63
2019-05-20T02:27:36.527Z,11.70
2019-05-20T02:30:08.063Z,12.53
2019-05-20T02:32:37.261Z,11.73
2019-05-20T02:35:08.046Z,12.60
2019-05-20T02:37:37.410Z,11.48
2019-05-20T02:40:08.547Z,12.75
2019-05-20T02:42:37.947Z,10.50
2019-05-20T02:45:08.540Z,12.00
2019-05-20T02:47:37.569Z,10.53
2019-05-20T02:50:06.973Z,11.78
2019-05-20T02:52:36.077Z,9.55
2019-05-20T02:55:07.033Z,12.13
2019-05-20T02:57:35.996Z,12.10
2019-05-20T03:00:07.818Z,9.58
2019-05-20T03:02:36.759Z,11.65
2019-05-20T03:05:06.880Z,9.60
2019-05-20T03:07:35.978Z,10.75
2019-05-20T03:10:06.015Z,13.30
2019-05-20T03:12:35.102Z,13.62
2019-05-20T03:15:05.757Z,12.85
2019-05-20T03:17:34.818Z,12.70
2019-05-20T03:20:04.327Z,10.65
2019-05-20T03:22:33.418Z,10.45
2019-05-20T03:25:02.498Z,11.78
2019-05-20T03:27:31.599Z,10.30
2019-05-20T03:30:01.155Z,10.28
2019-05-20T03:32:30.202Z,12.47
2019-05-20T03:35:01.139Z,11.12
2019-05-20T03:37:30.029Z,11.75
2019-05-20T03:39:59.020Z,11.03
2019-05-20T03:42:28.111Z,10.70
2019-05-20T03:44:57.314Z,13.18
2019-05-20T03:47:26.425Z,12.53
2019-05-20T03:49:55.425Z,12.10
2019-05-20T03:52:24.508Z,12.70
2019-05-20T03:54:53.563Z,12.70
2019-05-20T03:57:22.695Z,11.68
2019-05-20T03:59:51.887Z,11.90
2019-05-20T04:02:20.778Z,12.80
2019-05-20T04:05:02.497Z,13.22
2019-05-20T04:07:23.262Z,13.90
2019-05-20T04:09:52.298Z,11.97
2019-05-20T04:12:21.502Z,13.60
2019-05-20T04:14:50.760Z,10.50
2019-05-20T04:17:19.660Z,12.23
2019-05-20T04:19:48.653Z,12.00
2019-05-20T04:22:17.838Z,12.85
2019-05-20T04:24:46.939Z,13.70
2019-05-20T04:27:15.933Z,12.28
2019-05-20T04:29:44.925Z,14.50
2019-05-20T04:32:13.929Z,15.18
2019-05-20T04:34:43.026Z,10.90
2019-05-20T04:37:12.124Z,14.55
2019-05-20T04:39:41.213Z,12.07
2019-05-20T04:42:10.282Z,12.28
2019-05-20T04:44:39.395Z,12.90
2019-05-20T04:47:08.504Z,10.32
2019-05-20T04:49:37.372Z,15.53
2019-05-20T04:52:06.579Z,16.45
2019-05-20T04:54:35.467Z,18.10
2019-05-20T04:57:04.355Z,13.98
2019-05-20T04:59:33.560Z,20.02
2019-05-20T05:02:02.665Z,21.68
2019-05-20T05:04:31.649Z,16.93
2019-05-20T05:07:00.759Z,16.95
2019-05-20T05:09:29.629Z,19.95
2019-05-20T05:11:58.517Z,18.75
2019-05-20T05:14:27.508Z,16.57
2019-05-20T05:16:56.399Z,17.45
2019-05-20T05:19:25.399Z,19.95
2019-05-20T05:21:54.499Z,19.62
2019-05-20T05:24:23.589Z,18.73
2019-05-20T05:26:52.568Z,19.27
2019-05-20T05:29:21.584Z,21.65
2019-05-20T05:31:50.553Z,17.52
2019-05-20T05:34:19.455Z,17.25
2019-05-20T05:36:48.574Z,20.55
2019-05-20T05:39:17.654Z,16.30
2019-05-20T05:41:46.645Z,14.28
2019-05-20T05:44:15.624Z,18.32
2019-05-20T05:46:44.516Z,18.92
2019-05-20T05:49:13.516Z,20.85
2019-05-20T05:51:44.055Z,17.45
2019-05-20T05:54:13.149Z,18.12
2019-05-20T05:56:42.139Z,21.40
2019-05-20T05:59:11.232Z,21.70
2019-05-20T06:01:40.342Z,22.85
2019-05-20T06:04:09.429Z,19.92
2019-05-20T06:06:38.717Z,20.23
2019-05-20T06:09:08.113Z,19.32
2019-05-20T06:11:37.115Z,24.50
2019-05-20T06:14:06.223Z,19.95
2019-05-20T06:16:36.854Z,17.75
2019-05-20T06:19:05.620Z,21.02
2019-05-20T06:21:34.834Z,23.85
2019-05-20T06:24:03.935Z,21.57
2019-05-20T06:26:32.810Z,23.10
2019-05-20T06:29:03.015Z,23.22
2019-05-20T06:31:32.461Z,21.70
2019-05-20T06:34:01.748Z,21.73
2019-05-20T06:36:31.355Z,17.52
2019-05-20T06:39:12.825Z,18.15
2019-05-20T06:41:43.015Z,18.65
2019-05-20T06:44:12.162Z,17.10
2019-05-20T06:46:41.047Z,20.00
2019-05-20T06:49:10.139Z,17.62
2019-05-20T06:51:39.118Z,23.00
2019-05-20T06:54:07.997Z,20.27
2019-05-20T06:56:37.167Z,22.58
2019-05-20T06:59:06.423Z,16.97
2019-05-20T07:01:35.298Z,20.43
2019-05-20T07:04:04.510Z,22.82
2019-05-20T07:06:45.900Z,16.75
2019-05-20T07:09:05.772Z,18.98
2019-05-20T07:11:34.981Z,18.85
2019-05-20T07:14:04.191Z,16.05
2019-05-20T07:16:33.267Z,17.52
2019-05-20T07:19:02.343Z,16.60
2019-05-20T07:21:31.244Z,12.95
2019-05-20T07:24:00.347Z,15.28
2019-05-20T07:26:29.444Z,13.83
2019-05-20T07:28:58.324Z,12.18
2019-05-20T07:31:27.324Z,9.90
2019-05-20T07:33:56.414Z,10.72
2019-05-20T07:36:25.336Z,12.70
2019-05-20T07:38:54.298Z,11.50
2019-05-20T07:41:23.304Z,16.07
2019-05-20T07:43:52.289Z,15.43
2019-05-20T07:46:21.788Z,16.55
2019-05-20T07:48:51.148Z,19.92
2019-05-20T07:51:21.598Z,18.57
2019-05-20T07:53:51.559Z,18.07
2019-05-20T07:56:26.488Z,17.12
2019-05-20T07:58:58.529Z,26.75
2019-05-20T08:01:27.623Z,28.32
2019-05-20T08:03:56.627Z,21.55
2019-05-20T08:06:25.710Z,22.65
2019-05-20T08:08:54.798Z,21.62
2019-05-20T08:11:23.804Z,22.25
2019-05-20T08:13:52.913Z,20.50
2019-05-20T08:16:21.999Z,20.82
2019-05-20T08:18:51.117Z,19.05
2019-05-20T08:21:21.215Z,17.73
2019-05-20T08:23:50.426Z,18.57
2019-05-20T08:26:19.497Z,16.85
2019-05-20T08:28:48.710Z,22.00
2019-05-20T08:31:17.699Z,24.10
2019-05-20T08:33:46.690Z,19.48
2019-05-20T08:36:15.890Z,20.32
2019-05-20T08:38:44.993Z,24.32
2019-05-20T08:41:13.978Z,17.00
2019-05-20T08:43:43.079Z,18.95
2019-05-20T08:46:12.183Z,17.92
2019-05-20T08:48:41.051Z,15.98
2019-05-20T08:51:10.048Z,17.12
2019-05-20T08:53:39.165Z,17.95
2019-05-20T08:56:08.138Z,14.90
2019-05-20T08:58:37.336Z,19.95
2019-05-20T09:01:07.139Z,20.92
2019-05-20T09:03:37.182Z,18.00
2019-05-20T09:06:07.286Z,15.85
2019-05-20T09:08:36.169Z,15.60
2019-05-20T09:11:05.280Z,13.85
2019-05-20T09:13:34.379Z,14.65
2019-05-20T09:16:04.637Z,16.02
2019-05-20T09:18:33.785Z,19.60
2019-05-20T09:21:02.786Z,16.45
2019-05-20T09:23:31.664Z,17.17
2019-05-20T09:26:00.537Z,11.50
2019-05-20T09:28:30.489Z,17.85
2019-05-20T09:31:01.010Z,14.87
2019-05-20T09:33:30.310Z,15.13
2019-05-20T09:35:59.610Z,13.90
2019-05-20T09:38:28.499Z,12.78
2019-05-20T09:40:57.587Z,14.98
2019-05-20T09:43:26.879Z,16.62
2019-05-20T09:46:06.162Z,12.50
2019-05-20T09:48:26.416Z,14.40
2019-05-20T09:50:55.531Z,16.75
2019-05-20T09:53:24.815Z,17.12
2019-05-20T09:55:53.781Z,15.83
2019-05-20T09:58:23.104Z,18.60
2019-05-20T10:00:52.089Z,15.03
2019-05-20T10:03:21.084Z,14.55
2019-05-20T10:05:49.981Z,15.70
2019-05-20T10:08:34.554Z,14.15
2019-05-20T10:10:49.620Z,17.15
2019-05-20T10:13:18.699Z,13.15
2019-05-20T10:15:47.807Z,16.85
2019-05-20T10:18:34.186Z,17.00
2019-05-20T10:20:47.729Z,14.73
2019-05-20T10:23:16.607Z,16.80
2019-05-20T10:25:45.699Z,18.73
2019-05-20T10:28:14.698Z,17.52
2019-05-20T10:30:43.705Z,19.25
2019-05-20T10:33:12.694Z,18.42
2019-05-20T10:35:41.894Z,16.52
2019-05-20T10:38:10.879Z,19.67
2019-05-20T10:40:40.092Z,20.88
2019-05-20T10:43:09.177Z,18.60
2019-05-20T10:45:38.279Z,18.35
2019-05-20T10:48:08.895Z,15.60
2019-05-20T10:50:38.197Z,16.50
2019-05-20T10:53:07.503Z,15.93
2019-05-20T10:55:36.698Z,16.50
2019-05-20T10:58:06.105Z,18.70
2019-05-20T11:00:35.204Z,18.25
2019-05-20T11:03:04.296Z,15.98
2019-05-20T11:05:33.598Z,18.48
2019-05-20T11:08:05.342Z,15.03
2019-05-20T11:10:34.281Z,14.25
2019-05-20T11:13:03.605Z,16.12
2019-05-20T11:15:32.741Z,11.85
2019-05-20T11:18:01.736Z,14.95
2019-05-20T11:20:30.830Z,17.90
2019-05-20T11:23:01.245Z,16.97
2019-05-20T11:25:30.458Z,15.80
2019-05-20T11:27:59.546Z,15.93
2019-05-20T11:30:28.639Z,15.50
2019-05-20T11:32:57.621Z,19.02
2019-05-20T11:35:26.736Z,17.82
2019-05-20T11:37:55.714Z,15.93
2019-05-20T11:40:24.832Z,15.83
2019-05-20T11:42:53.970Z,13.13
2019-05-20T11:45:23.118Z,25.52
2019-05-20T11:47:52.093Z,21.17
2019-05-20T11:50:21.294Z,16.15
2019-05-20T11:52:50.289Z,16.12
2019-05-20T11:55:19.388Z,15.03
2019-05-20T11:57:48.486Z,21.73
2019-05-20T12:00:18.081Z,16.40
2019-05-20T12:02:47.190Z,13.13
2019-05-20T12:05:16.496Z,16.75
2019-05-20T12:07:45.621Z,16.30
2019-05-20T12:10:14.796Z,15.78
2019-05-20T12:12:46.031Z,18.35
2019-05-20T12:15:14.937Z,16.52
2019-05-20T12:17:44.621Z,14.23
2019-05-20T12:20:14.401Z,13.22
2019-05-20T12:22:43.444Z,16.90
2019-05-20T12:25:12.593Z,15.85
2019-05-20T12:27:41.510Z,22.25
2019-05-20T12:30:10.793Z,15.58
2019-05-20T12:32:39.700Z,15.85
2019-05-20T12:35:09.179Z,16.42
2019-05-20T12:37:38.147Z,14.28
2019-05-20T12:40:08.800Z,13.90
2019-05-20T12:42:38.252Z,14.83
2019-05-20T12:45:08.297Z,11.83
2019-05-20T12:47:38.177Z,9.70
2019-05-20T12:50:08.425Z,13.72
2019-05-20T12:52:37.287Z,15.60
2019-05-20T12:55:09.605Z,13.48
2019-05-20T12:57:38.451Z,12.85
2019-05-20T13:00:12.459Z,15.00
2019-05-20T13:02:42.834Z,16.40
2019-05-20T13:05:12.069Z,15.48
2019-05-20T13:07:41.020Z,17.30
2019-05-20T13:10:27.973Z,12.78
2019-05-20T13:12:41.515Z,17.50
2019-05-20T13:15:11.348Z,10.78
2019-05-20T13:17:44.363Z,15.75
2019-05-20T13:20:11.275Z,13.38
2019-05-20T13:22:40.152Z,15.80
2019-05-20T13:25:10.313Z,15.48
2019-05-20T13:27:39.261Z,12.43
2019-05-20T13:30:08.805Z,10.65
2019-05-20T13:32:37.753Z,11.40
2019-05-20T13:35:08.178Z,11.08
2019-05-20T13:37:37.476Z,15.00
2019-05-20T13:40:07.874Z,12.00
2019-05-20T13:42:37.025Z,10.68
2019-05-20T13:45:08.064Z,13.45
2019-05-20T13:47:37.364Z,12.75
2019-05-20T13:50:10.490Z,11.22
2019-05-20T13:52:39.428Z,13.35
2019-05-20T13:55:09.680Z,13.03
2019-05-20T13:57:39.126Z,12.90
2019-05-20T14:00:09.002Z,12.35
2019-05-20T14:02:38.100Z,14.63
2019-05-20T14:05:07.234Z,10.80
2019-05-20T14:07:36.344Z,14.10
2019-05-20T14:10:07.883Z,15.72
2019-05-20T14:12:36.885Z,14.28
2019-05-20T14:15:07.058Z,16.07
2019-05-20T14:17:36.105Z,17.70
2019-05-20T14:20:06.396Z,17.05
2019-05-20T14:22:35.422Z,15.93
2019-05-20T14:25:06.734Z,16.20
2019-05-20T14:27:35.769Z,19.50
2019-05-20T14:30:08.094Z,18.82
2019-05-20T14:32:37.224Z,19.67
2019-05-20T14:35:08.503Z,17.82
2019-05-20T14:37:37.656Z,25.15
2019-05-20T14:40:07.704Z,22.07
2019-05-20T14:42:36.702Z,21.27
2019-05-20T14:45:07.569Z,19.35
2019-05-20T14:47:36.725Z,19.50
2019-05-20T14:50:09.549Z,15.80
2019-05-20T14:52:38.684Z,25.17
2019-05-20T14:55:08.331Z,16.77
2019-05-20T14:57:37.406Z,20.50
2019-05-20T15:00:08.656Z,23.10
2019-05-20T15:02:37.744Z,15.85
2019-05-20T15:05:08.385Z,18.30
2019-05-20T15:07:37.465Z,17.12
2019-05-20T15:10:10.265Z,18.25
2019-05-20T15:12:40.366Z,13.28
2019-05-20T15:15:09.851Z,22.02
2019-05-20T15:17:38.969Z,23.77
2019-05-20T15:20:08.908Z,16.32
2019-05-20T15:22:37.970Z,17.75
2019-05-20T15:25:08.067Z,16.97
2019-05-20T15:27:37.125Z,17.57
2019-05-20T15:30:09.308Z,19.20
2019-05-20T15:32:38.470Z,15.68
2019-05-20T15:35:08.146Z,16.37
2019-05-20T15:37:37.365Z,22.35
2019-05-20T15:40:06.643Z,19.05
2019-05-20T15:42:35.893Z,22.32
2019-05-20T15:45:10.202Z,21.42
2019-05-20T15:47:39.425Z,21.40
2019-05-20T15:50:10.959Z,22.55
2019-05-20T15:52:40.029Z,14.58
2019-05-20T15:55:11.052Z,15.38
2019-05-20T15:57:40.168Z,18.10
2019-05-20T16:00:11.222Z,16.05
2019-05-20T16:02:40.413Z,22.80
2019-05-20T16:05:10.016Z,25.82
2019-05-20T16:07:39.132Z,26.77
2019-05-20T16:10:08.602Z,22.87
2019-05-20T16:12:37.482Z,16.25
2019-05-20T16:15:10.236Z,29.25
2019-05-20T16:17:39.425Z,27.07
2019-05-20T16:20:08.887Z,24.43
2019-05-20T16:22:37.994Z,20.95
2019-05-20T16:25:08.696Z,19.52
2019-05-20T16:27:37.714Z,23.60
2019-05-20T16:30:10.097Z,25.08
2019-05-20T16:32:39.394Z,26.23
2019-05-20T16:35:08.593Z,22.62
2019-05-20T16:37:37.605Z,20.82
2019-05-20T16:40:08.742Z,21.07
2019-05-20T16:42:37.814Z,26.57
2019-05-20T16:45:11.633Z,19.98
2019-05-20T16:47:39.600Z,23.47
2019-05-20T16:50:10.634Z,22.60
2019-05-20T16:52:39.714Z,21.30
2019-05-20T16:55:09.676Z,21.65
2019-05-20T16:57:38.761Z,19.85
2019-05-20T17:00:27.873Z,19.80
2019-05-20T17:02:39.324Z,16.85
2019-05-20T17:05:08.609Z,11.83
2019-05-20T17:07:37.537Z,15.13
2019-05-20T17:10:09.915Z,16.90
2019-05-20T17:12:38.922Z,13.80
2019-05-20T17:15:08.336Z,11.68
2019-05-20T17:17:37.287Z,16.60
2019-05-20T17:20:06.697Z,12.95
2019-05-20T17:22:35.711Z,17.85
2019-05-20T17:25:08.913Z,12.98
2019-05-20T17:27:38.032Z,14.03
2019-05-20T17:30:08.890Z,15.43
2019-05-20T17:32:38.094Z,14.47
2019-05-20T17:35:07.582Z,15.43
2019-05-20T17:37:36.539Z,15.78
2019-05-20T17:40:08.390Z,14.87
2019-05-20T17:42:37.394Z,14.75
2019-05-20T17:45:08.041Z,14.80
2019-05-20T17:47:37.094Z,12.25
2019-05-20T17:50:08.244Z,12.37
2019-05-20T17:52:37.374Z,13.88
2019-05-20T17:55:07.690Z,15.08
2019-05-20T17:57:36.869Z,15.10
2019-05-20T18:00:11.227Z,12.82
2019-05-20T18:02:40.386Z,13.98
2019-05-20T18:05:09.750Z,13.93
2019-05-20T18:07:38.905Z,15.98
2019-05-20T18:10:08.936Z,17.42
2019-05-20T18:12:38.013Z,12.55
2019-05-20T18:15:07.339Z,13.40
2019-05-20T18:17:36.397Z,14.05
2019-05-20T18:20:08.839Z,15.25
2019-05-20T18:22:38.384Z,17.42
2019-05-20T18:25:08.172Z,12.05
2019-05-20T18:27:37.198Z,17.17
2019-05-20T18:30:08.436Z,13.98
2019-05-20T18:32:38.593Z,16.12
2019-05-20T18:35:07.994Z,14.63
2019-05-20T18:37:37.052Z,11.40
2019-05-20T18:40:14.095Z,13.45
2019-05-20T18:42:38.210Z,15.80
2019-05-20T18:45:07.823Z,11.88
2019-05-20T18:47:36.806Z,11.63
2019-05-20T18:50:07.363Z,12.50
2019-05-20T18:52:37.994Z,12.65
2019-05-20T18:55:07.618Z,9.55
2019-05-20T18:57:36.692Z,11.48
2019-05-20T19:00:09.062Z,12.30
2019-05-20T19:02:38.238Z,15.05
2019-05-20T19:05:07.976Z,11.57
2019-05-20T19:07:37.392Z,14.13
2019-05-20T19:10:07.259Z,10.38
2019-05-20T19:12:36.574Z,10.82
2019-05-20T19:15:07.141Z,11.15
2019-05-20T19:17:40.717Z,11.22
2019-05-20T19:20:09.801Z,11.65
2019-05-20T19:22:38.886Z,13.72
2019-05-20T19:25:08.093Z,11.97
2019-05-20T19:27:37.383Z,14.50
2019-05-20T19:30:07.263Z,14.20
2019-05-20T19:32:36.747Z,12.30
2019-05-20T19:35:09.431Z,10.88
2019-05-20T19:37:38.682Z,11.95
2019-05-20T19:40:08.634Z,11.50
2019-05-20T19:42:39.373Z,14.85
2019-05-20T19:45:08.538Z,14.28
2019-05-20T19:47:37.770Z,11.35
2019-05-20T19:50:11.675Z,12.95
2019-05-20T19:52:40.956Z,12.58
2019-05-20T19:55:10.378Z,11.63
2019-05-20T19:57:39.457Z,14.78
2019-05-20T20:00:09.818Z,14.55
2019-05-20T20:02:38.875Z,12.73
2019-05-20T20:05:08.401Z,16.45
2019-05-20T20:07:37.590Z,12.03
2019-05-20T20:10:06.872Z,15.60
2019-05-20T20:12:35.975Z,14.05
2019-05-20T20:15:07.470Z,12.95
2019-05-20T20:17:36.706Z,14.15
2019-05-20T20:20:07.025Z,16.05
2019-05-20T20:22:36.283Z,15.03
2019-05-20T20:25:06.741Z,16.25
2019-05-20T20:27:35.752Z,16.35
2019-05-20T20:30:07.135Z,9.50
2019-05-20T20:32:44.586Z,19.92
2019-05-20T20:35:13.960Z,13.13
2019-05-20T20:37:44.448Z,13.70
2019-05-20T20:40:13.957Z,9.00
2019-05-20T20:42:43.161Z,13.20
2019-05-20T20:45:12.757Z,11.93
2019-05-20T20:47:42.481Z,12.35
2019-05-20T20:50:12.587Z,11.12
2019-05-20T20:52:41.754Z,16.10
2019-05-20T20:55:11.728Z,14.55
2019-05-20T20:57:40.872Z,12.80
2019-05-20T21:00:10.619Z,12.43
2019-05-20T21:02:52.304Z,9.40
2019-05-20T21:05:10.803Z,12.82
2019-05-20T21:07:40.533Z,12.65
2019-05-20T21:10:09.587Z,10.13
2019-05-20T21:12:38.547Z,9.78
2019-05-20T21:15:07.724Z,14.28
2019-05-20T21:17:36.702Z,13.32
2019-05-20T21:20:07.031Z,13.80
2019-05-20T21:22:36.228Z,10.70
2019-05-20T21:25:06.784Z,13.50
2019-05-20T21:27:35.856Z,9.78
2019-05-20T21:30:06.809Z,14.33
2019-05-20T21:32:35.754Z,18.65
2019-05-20T21:35:05.368Z,15.85
2019-05-20T21:37:34.380Z,17.70
2019-05-20T21:40:03.465Z,18.25
2019-05-20T21:42:32.677Z,18.75
2019-05-20T21:45:01.690Z,13.75
2019-05-20T21:47:30.660Z,17.12
2019-05-20T21:49:59.774Z,14.47
2019-05-20T21:52:28.959Z,15.15
2019-05-20T21:54:57.840Z,20.10
2019-05-20T21:57:26.932Z,14.28
2019-05-20T21:59:56.058Z,15.05
2019-05-20T22:02:26.669Z,18.50
2019-05-20T22:04:55.969Z,15.83
2019-05-20T22:07:25.089Z,18.37
2019-05-20T22:09:54.056Z,15.63
2019-05-20T22:12:23.049Z,14.75
2019-05-20T22:14:52.034Z,15.18
2019-05-20T22:17:21.038Z,12.90
2019-05-20T22:19:50.139Z,13.95
2019-05-20T22:22:20.778Z,13.55
2019-05-20T22:24:49.989Z,16.95
2019-05-20T22:27:20.112Z,12.03
2019-05-20T22:29:49.127Z,15.15
2019-05-20T22:32:18.058Z,12.03
2019-05-20T22:34:53.620Z,10.58
2019-05-20T22:37:18.618Z,9.65
2019-05-20T22:39:47.709Z,10.32
2019-05-20T22:42:16.818Z,11.28
2019-05-20T22:44:45.697Z,12.05
2019-05-20T22:47:14.799Z,11.48
2019-05-20T22:49:43.780Z,11.57
2019-05-20T22:52:12.980Z,10.03
2019-05-20T22:54:41.987Z,9.35
2019-05-20T22:57:11.080Z,14.13
2019-05-20T22:59:39.949Z,12.33
2019-05-20T23:02:08.958Z,14.07
2019-05-20T23:04:38.063Z,10.03
2019-05-20T23:07:07.160Z,11.63
2019-05-20T23:09:36.272Z,8.93
2019-05-20T23:12:05.560Z,12.82
2019-05-20T23:14:34.557Z,9.30
2019-05-20T23:17:03.813Z,12.90
2019-05-20T23:19:32.883Z,11.48
2019-05-20T23:22:02.199Z,12.00
2019-05-20T23:24:31.106Z,11.60
2019-05-20T23:27:00.217Z,12.43
2019-05-20T23:29:29.217Z,12.05
2019-05-20T23:31:58.217Z,11.28
2019-05-20T23:34:27.305Z,12.07
2019-05-20T23:36:56.502Z,9.63
2019-05-20T23:39:25.628Z,11.25
2019-05-20T23:41:54.867Z,11.85
2019-05-20T23:44:24.015Z,13.95
2019-05-20T23:46:53.098Z,7.50
2019-05-20T23:49:22.617Z,15.48
2019-05-20T23:51:51.688Z,13.60
2019-05-20T23:54:20.907Z,14.20
2019-05-20T23:56:50.135Z,18.23
2019-05-20T23:59:19.178Z,13.32
